PWSweather.com
Personal Weather Stations
Station Observations
DW1039
Liberty & Fairfield Townships, Hamilton, OH 45011

Liberty & Fairfield TownshipsHamilton, OH 45011

Lat: 39.3933, Lon: -84.477

Elevation: 780

Station Type: Davis Vantage Pro2 (Daytime Fan Aspirated)

http://www.lfweathercenter.com/

Latest ConditionsUpdated 6:10:24 PM EDT Saturday, Mar 28, 2015
Currently Today's Max Today's Min Today's Average
Temperature 36.6°F2.6°C 37.6°F3.1°C 18.5°F-7.5°C 26.8°F-2.9°C
Dew Point 16.8°F-8.4°C 19.5°F-6.9°C 14.0°F-10.0°C 16.6°F-8.6°C
Winds 2.0 mph N3.2 kmh N 13.0 mph N20.9 kmh N - 3.6 mph 5.8 kmh
Wind Gusts 9.0 mph14.5 kmh 14.0 mph22.5 kmh - -
Humidity 44% 83% 42% 66%
Pressure 30.35 in1027.8 mb 30.36 in1028.1 mb 30.17 in1021.7 mb -
Hour Temp Dew Point Humidity Winds Wind Gusts Pressure Precip Precip Rate Daily Precip Total
06:10 PM 36.6°F2.6°C 16.8°F-8.4°C 44% 2.0 mph N3.2 kmh N 9.0 mph14.5 kmh 30.35 in1027.8 mb 0.00 in0.0 mm 0.00 in0.0 mm 0.00 in0.0 mm
06:00 PM 36.5°F2.5°C 15.6°F-9.1°C 42% 4.0 mph NNW6.4 kmh NNW 7.0 mph11.3 kmh 30.35 in1027.8 mb 0.00 in0.0 mm 0.00 in0.0 mm 0.00 in0.0 mm
05:50 PM 36.6°F2.6°C 16.2°F-8.8°C 43% 3.0 mph NW4.8 kmh NW 9.0 mph14.5 kmh 30.35 in1027.8 mb 0.00 in0.0 mm 0.00 in0.0 mm 0.00 in0.0 mm
05:40 PM 37.6°F3.1°C 17.1°F-8.3°C 43% 4.0 mph WNW6.4 kmh WNW 10.0 mph16.1 kmh 30.35 in1027.8 mb 0.00 in0.0 mm 0.00 in0.0 mm 0.00 in0.0 mm
05:30 PM 36.8°F2.7°C 17.0°F-8.3°C 44% 3.0 mph NW4.8 kmh NW 7.0 mph11.3 kmh 30.34 in1027.4 mb 0.00 in0.0 mm 0.00 in0.0 mm 0.00 in0.0 mm
05:20 PM 36.7°F2.6°C 17.4°F-8.1°C 45% 6.0 mph N9.7 kmh N 10.0 mph16.1 kmh 30.34 in1027.4 mb 0.00 in0.0 mm 0.00 in0.0 mm 0.00 in0.0 mm
05:10 PM 36.5°F2.5°C 18.7°F-7.4°C 48% 4.0 mph NE6.4 kmh NE 9.0 mph14.5 kmh 30.34 in1027.4 mb 0.00 in0.0 mm 0.00 in0.0 mm 0.00 in0.0 mm
05:00 PM 37.1°F2.8°C 17.2°F-8.2°C 44% Calm Calm 6.0 mph9.7 kmh 30.34 in1027.4 mb 0.00 in0.0 mm 0.00 in0.0 mm 0.00 in0.0 mm
04:50 PM 37.1°F2.8°C 18.3°F-7.6°C 46% 3.0 mph N4.8 kmh N 9.0 mph14.5 kmh 30.34 in1027.4 mb 0.00 in0.0 mm 0.00 in0.0 mm 0.00 in0.0 mm
04:40 PM 36.9°F2.7°C 19.1°F-7.2°C 48% 4.0 mph N6.4 kmh N 7.0 mph11.3 kmh 30.34 in1027.4 mb 0.00 in0.0 mm 0.00 in0.0 mm 0.00 in0.0 mm
04:30 PM 36.0°F2.2°C 17.7°F-7.9°C 47% 10.0 mph NW16.1 kmh NW 11.0 mph17.7 kmh 30.34 in1027.4 mb 0.00 in0.0 mm 0.00 in0.0 mm 0.00 in0.0 mm
04:20 PM 36.1°F2.3°C 16.8°F-8.4°C 45% 7.0 mph NNW11.3 kmh NNW 9.0 mph14.5 kmh 30.34 in1027.4 mb 0.00 in0.0 mm 0.00 in0.0 mm 0.00 in0.0 mm
04:10 PM 35.7°F2.1°C 18.0°F-7.8°C 48% 4.0 mph WNW6.4 kmh WNW 9.0 mph14.5 kmh 30.34 in1027.4 mb 0.00 in0.0 mm 0.00 in0.0 mm 0.00 in0.0 mm
04:00 PM 35.4°F1.9°C 17.2°F-8.2°C 47% Calm Calm 6.0 mph9.7 kmh 30.34 in1027.4 mb 0.00 in0.0 mm 0.00 in0.0 mm 0.00 in0.0 mm
03:50 PM 35.4°F1.9°C 18.2°F-7.7°C 49% 9.0 mph N14.5 kmh N 9.0 mph14.5 kmh 30.35 in1027.8 mb 0.00 in0.0 mm 0.00 in0.0 mm 0.00 in0.0 mm
03:40 PM 35.1°F1.7°C 18.8°F-7.3°C 51% 5.0 mph N8.0 kmh N 10.0 mph16.1 kmh 30.35 in1027.8 mb 0.00 in0.0 mm 0.00 in0.0 mm 0.00 in0.0 mm
03:20 PM 34.3°F1.3°C 17.6°F-8.0°C 50% 2.0 mph N3.2 kmh N 6.0 mph9.7 kmh 30.35 in1027.8 mb 0.00 in0.0 mm 0.00 in0.0 mm 0.00 in0.0 mm
03:10 PM 34.3°F1.3°C 16.2°F-8.8°C 47% 1.0 mph NNW1.6 kmh NNW 13.0 mph20.9 kmh 30.35 in1027.8 mb 0.00 in0.0 mm 0.00 in0.0 mm 0.00 in0.0 mm
03:01 PM 34.7°F1.5°C 19.3°F-7.1°C 53% 13.0 mph N20.9 kmh N 13.0 mph20.9 kmh 30.35 in1027.8 mb 0.00 in0.0 mm 0.00 in0.0 mm 0.00 in0.0 mm
03:00 PM 34.6°F1.4°C 18.8°F-7.3°C 52% 4.0 mph NNW6.4 kmh NNW 12.0 mph19.3 kmh 30.35 in1027.8 mb 0.00 in0.0 mm 0.00 in0.0 mm 0.00 in0.0 mm
02:50 PM 34.1°F1.2°C 17.4°F-8.1°C 50% 3.0 mph NW4.8 kmh NW 11.0 mph17.7 kmh 30.35 in1027.8 mb 0.00 in0.0 mm 0.00 in0.0 mm 0.00 in0.0 mm
02:40 PM 34.6°F1.4°C 18.3°F-7.6°C 51% 11.0 mph N17.7 kmh N 13.0 mph20.9 kmh 30.35 in1027.8 mb 0.00 in0.0 mm 0.00 in0.0 mm 0.00 in0.0 mm
02:30 PM 33.5°F0.8°C 17.3°F-8.2°C 51% 5.0 mph WSW8.0 kmh WSW 6.0 mph9.7 kmh 30.35 in1027.8 mb 0.00 in0.0 mm 0.00 in0.0 mm 0.00 in0.0 mm
02:20 PM 33.4°F0.8°C 19.0°F-7.2°C 55% 3.0 mph NNW4.8 kmh NNW 13.0 mph20.9 kmh 30.35 in1027.8 mb 0.00 in0.0 mm 0.00 in0.0 mm 0.00 in0.0 mm
02:10 PM 32.9°F0.5°C 17.2°F-8.2°C 52% 2.0 mph NNE3.2 kmh NNE 11.0 mph17.7 kmh 30.35 in1027.8 mb 0.00 in0.0 mm 0.00 in0.0 mm 0.00 in0.0 mm
02:00 PM 32.9°F0.5°C 16.8°F-8.4°C 51% 8.0 mph NE12.9 kmh NE 11.0 mph17.7 kmh 30.36 in1028.1 mb 0.00 in0.0 mm 0.00 in0.0 mm 0.00 in0.0 mm
01:50 PM 32.9°F0.5°C 17.7°F-7.9°C 53% 11.0 mph NW17.7 kmh NW 12.0 mph19.3 kmh 30.36 in1028.1 mb 0.00 in0.0 mm 0.00 in0.0 mm 0.00 in0.0 mm
01:40 PM 32.4°F0.2°C 16.3°F-8.7°C 51% 4.0 mph WSW6.4 kmh WSW 11.0 mph17.7 kmh 30.36 in1028.1 mb 0.00 in0.0 mm 0.00 in0.0 mm 0.00 in0.0 mm
01:30 PM 32.4°F0.2°C 17.2°F-8.2°C 53% 6.0 mph N9.7 kmh N 12.0 mph19.3 kmh 30.36 in1028.1 mb 0.00 in0.0 mm 0.00 in0.0 mm 0.00 in0.0 mm
01:20 PM 32.6°F0.3°C 19.5°F-6.9°C 58% 9.0 mph NE14.5 kmh NE 14.0 mph22.5 kmh 30.36 in1028.1 mb 0.00 in0.0 mm 0.00 in0.0 mm 0.00 in0.0 mm
01:10 PM 31.7°F-0.2°C 17.4°F-8.1°C 55% 5.0 mph NNW8.0 kmh NNW 10.0 mph16.1 kmh 30.36 in1028.1 mb 0.00 in0.0 mm 0.00 in0.0 mm 0.00 in0.0 mm
01:00 PM 31.3°F-0.4°C 18.3°F-7.6°C 58% 4.0 mph N6.4 kmh N 12.0 mph19.3 kmh 30.36 in1028.1 mb 0.00 in0.0 mm 0.00 in0.0 mm 0.00 in0.0 mm
12:50 PM 31.2°F-0.4°C 16.1°F-8.8°C 53% 4.0 mph NW6.4 kmh NW 12.0 mph19.3 kmh 30.36 in1028.1 mb 0.00 in0.0 mm 0.00 in0.0 mm 0.00 in0.0 mm
12:40 PM 30.9°F-0.6°C 17.9°F-7.8°C 58% 3.0 mph NW4.8 kmh NW 14.0 mph22.5 kmh 30.36 in1028.1 mb 0.00 in0.0 mm 0.00 in0.0 mm 0.00 in0.0 mm
12:30 PM 30.4°F-0.9°C 17.0°F-8.3°C 57% Calm Calm 11.0 mph17.7 kmh 30.36 in1028.1 mb 0.00 in0.0 mm 0.00 in0.0 mm 0.00 in0.0 mm
12:20 PM 29.7°F-1.3°C 15.9°F-8.9°C 56% 6.0 mph E9.7 kmh E 12.0 mph19.3 kmh 30.36 in1028.1 mb 0.00 in0.0 mm 0.00 in0.0 mm 0.00 in0.0 mm
12:10 PM 29.4°F-1.4°C 16.1°F-8.8°C 57% Calm Calm 11.0 mph17.7 kmh 30.36 in1028.1 mb 0.00 in0.0 mm 0.00 in0.0 mm 0.00 in0.0 mm
12:00 PM 30.5°F-0.8°C 19.4°F-7.0°C 63% 6.0 mph N9.7 kmh N 10.0 mph16.1 kmh 30.36 in1028.1 mb 0.00 in0.0 mm 0.00 in0.0 mm 0.00 in0.0 mm
11:50 AM 29.1°F-1.6°C 18.1°F-7.7°C 63% 6.0 mph NW9.7 kmh NW 9.0 mph14.5 kmh 30.36 in1028.1 mb 0.00 in0.0 mm 0.00 in0.0 mm 0.00 in0.0 mm
11:40 AM 27.1°F-2.7°C 15.5°F-9.2°C 61% 3.0 mph NE4.8 kmh NE 10.0 mph16.1 kmh 30.36 in1028.1 mb 0.00 in0.0 mm 0.00 in0.0 mm 0.00 in0.0 mm
11:30 AM 26.9°F-2.8°C 16.0°F-8.9°C 63% 2.0 mph NW3.2 kmh NW 10.0 mph16.1 kmh 30.35 in1027.8 mb 0.00 in0.0 mm 0.00 in0.0 mm 0.00 in0.0 mm
11:20 AM 27.8°F-2.3°C 16.5°F-8.6°C 62% 5.0 mph NNW8.0 kmh NNW 10.0 mph16.1 kmh 30.35 in1027.8 mb 0.00 in0.0 mm 0.00 in0.0 mm 0.00 in0.0 mm
11:10 AM 29.7°F-1.3°C 19.0°F-7.2°C 64% Calm Calm 4.0 mph6.4 kmh 30.35 in1027.8 mb 0.00 in0.0 mm 0.00 in0.0 mm 0.00 in0.0 mm
11:00 AM 29.7°F-1.3°C 19.4°F-7.0°C 65% Calm Calm 6.0 mph9.7 kmh 30.35 in1027.8 mb 0.00 in0.0 mm 0.00 in0.0 mm 0.00 in0.0 mm
10:50 AM 28.3°F-2.1°C 19.1°F-7.2°C 68% 6.0 mph ENE9.7 kmh ENE 8.0 mph12.9 kmh 30.35 in1027.8 mb 0.00 in0.0 mm 0.00 in0.0 mm 0.00 in0.0 mm
10:40 AM 27.9°F-2.3°C 17.7°F-7.9°C 65% 2.0 mph NE3.2 kmh NE 12.0 mph19.3 kmh 30.34 in1027.4 mb 0.00 in0.0 mm 0.00 in0.0 mm 0.00 in0.0 mm
10:30 AM 27.6°F-2.4°C 18.8°F-7.3°C 69% 7.0 mph NE11.3 kmh NE 14.0 mph22.5 kmh 30.34 in1027.4 mb 0.00 in0.0 mm 0.00 in0.0 mm 0.00 in0.0 mm
10:20 AM 26.5°F-3.1°C 18.4°F-7.6°C 71% 11.0 mph NNE17.7 kmh NNE 11.0 mph17.7 kmh 30.33 in1027.1 mb 0.00 in0.0 mm 0.00 in0.0 mm 0.00 in0.0 mm
10:10 AM 26.0°F-3.3°C 18.2°F-7.7°C 72% 4.0 mph NNE6.4 kmh NNE 11.0 mph17.7 kmh 30.33 in1027.1 mb 0.00 in0.0 mm 0.00 in0.0 mm 0.00 in0.0 mm
10:00 AM 25.3°F-3.7°C 18.8°F-7.3°C 76% 4.0 mph ENE6.4 kmh ENE 12.0 mph19.3 kmh 30.33 in1027.1 mb 0.00 in0.0 mm 0.00 in0.0 mm 0.00 in0.0 mm
09:50 AM 24.1°F-4.4°C 18.0°F-7.8°C 77% 6.0 mph NE9.7 kmh NE 11.0 mph17.7 kmh 30.32 in1026.8 mb 0.00 in0.0 mm 0.00 in0.0 mm 0.00 in0.0 mm
09:40 AM 23.5°F-4.7°C 17.4°F-8.1°C 77% Calm Calm 9.0 mph14.5 kmh 30.32 in1026.8 mb 0.00 in0.0 mm 0.00 in0.0 mm 0.00 in0.0 mm
09:30 AM 23.9°F-4.5°C 18.4°F-7.6°C 79% 4.0 mph NNE6.4 kmh NNE 10.0 mph16.1 kmh 30.32 in1026.8 mb 0.00 in0.0 mm 0.00 in0.0 mm 0.00 in0.0 mm
09:20 AM 23.7°F-4.6°C 18.5°F-7.5°C 80% 2.0 mph ENE3.2 kmh ENE 7.0 mph11.3 kmh 30.32 in1026.8 mb 0.00 in0.0 mm 0.00 in0.0 mm 0.00 in0.0 mm
09:10 AM 23.3°F-4.8°C 18.3°F-7.6°C 81% 1.0 mph NE1.6 kmh NE 6.0 mph9.7 kmh 30.31 in1026.4 mb 0.00 in0.0 mm 0.00 in0.0 mm 0.00 in0.0 mm
09:00 AM 22.6°F-5.2°C 17.9°F-7.8°C 82% Calm Calm 4.0 mph6.4 kmh 30.31 in1026.4 mb 0.00 in0.0 mm 0.00 in0.0 mm 0.00 in0.0 mm
08:50 AM 22.0°F-5.6°C 17.4°F-8.1°C 82% 2.0 mph N3.2 kmh N 5.0 mph8.0 kmh 30.30 in1026.1 mb 0.00 in0.0 mm 0.00 in0.0 mm 0.00 in0.0 mm
08:40 AM 21.4°F-5.9°C 17.1°F-8.3°C 83% 1.0 mph NE1.6 kmh NE 6.0 mph9.7 kmh 30.30 in1026.1 mb 0.00 in0.0 mm 0.00 in0.0 mm 0.00 in0.0 mm
08:30 AM 20.9°F-6.2°C 16.6°F-8.6°C 83% 3.0 mph N4.8 kmh N 6.0 mph9.7 kmh 30.29 in1025.7 mb 0.00 in0.0 mm 0.00 in0.0 mm 0.00 in0.0 mm
08:20 AM 20.4°F-6.4°C 16.1°F-8.8°C 83% Calm Calm 5.0 mph8.0 kmh 30.29 in1025.7 mb 0.00 in0.0 mm 0.00 in0.0 mm 0.00 in0.0 mm
08:10 AM 19.7°F-6.8°C 15.4°F-9.2°C 83% 2.0 mph N3.2 kmh N 5.0 mph8.0 kmh 30.28 in1025.4 mb 0.00 in0.0 mm 0.00 in0.0 mm 0.00 in0.0 mm
08:00 AM 19.1°F-7.2°C 14.8°F-9.6°C 83% 2.0 mph N3.2 kmh N 6.0 mph9.7 kmh 30.28 in1025.4 mb 0.00 in0.0 mm 0.00 in0.0 mm 0.00 in0.0 mm
07:50 AM 18.6°F-7.4°C 14.3°F-9.8°C 83% 4.0 mph N6.4 kmh N 4.0 mph6.4 kmh 30.27 in1025.1 mb 0.00 in0.0 mm 0.00 in0.0 mm 0.00 in0.0 mm
07:40 AM 18.5°F-7.5°C 14.2°F-9.9°C 83% Calm Calm 4.0 mph6.4 kmh 30.27 in1025.1 mb 0.00 in0.0 mm 0.00 in0.0 mm 0.00 in0.0 mm
07:30 AM 18.6°F-7.4°C 14.0°F-10.0°C 82% 1.0 mph N1.6 kmh N 2.0 mph3.2 kmh 30.26 in1024.7 mb 0.00 in0.0 mm 0.00 in0.0 mm 0.00 in0.0 mm
07:20 AM 18.8°F-7.3°C 14.2°F-9.9°C 82% 1.0 mph N1.6 kmh N 3.0 mph4.8 kmh 30.26 in1024.7 mb 0.00 in0.0 mm 0.00 in0.0 mm 0.00 in0.0 mm
07:10 AM 19.0°F-7.2°C 14.4°F-9.8°C 82% Calm Calm 2.0 mph3.2 kmh 30.25 in1024.4 mb 0.00 in0.0 mm 0.00 in0.0 mm 0.00 in0.0 mm
07:00 AM 19.3°F-7.1°C 14.7°F-9.6°C 82% Calm Calm 3.0 mph4.8 kmh 30.25 in1024.4 mb 0.00 in0.0 mm 0.00 in0.0 mm 0.00 in0.0 mm
06:50 AM 19.2°F-7.1°C 14.6°F-9.7°C 82% 4.0 mph NNW6.4 kmh NNW 4.0 mph6.4 kmh 30.24 in1024.0 mb 0.00 in0.0 mm 0.00 in0.0 mm 0.00 in0.0 mm
06:40 AM 19.2°F-7.1°C 14.6°F-9.7°C 82% 2.0 mph NW3.2 kmh NW 2.0 mph3.2 kmh 30.23 in1023.7 mb 0.00 in0.0 mm 0.00 in0.0 mm 0.00 in0.0 mm
06:30 AM 19.5°F-6.9°C 14.9°F-9.5°C 82% Calm Calm 2.0 mph3.2 kmh 30.23 in1023.7 mb 0.00 in0.0 mm 0.00 in0.0 mm 0.00 in0.0 mm
06:20 AM 19.7°F-6.8°C 15.1°F-9.4°C 82% 1.0 mph NW1.6 kmh NW 4.0 mph6.4 kmh 30.23 in1023.7 mb 0.00 in0.0 mm 0.00 in0.0 mm 0.00 in0.0 mm
06:10 AM 19.7°F-6.8°C 14.8°F-9.6°C 81% 1.0 mph N1.6 kmh N 4.0 mph6.4 kmh 30.23 in1023.7 mb 0.00 in0.0 mm 0.00 in0.0 mm 0.00 in0.0 mm
06:00 AM 20.0°F-6.7°C 15.1°F-9.4°C 81% 1.0 mph NNW1.6 kmh NNW 2.0 mph3.2 kmh 30.22 in1023.4 mb 0.00 in0.0 mm 0.00 in0.0 mm 0.00 in0.0 mm
05:50 AM 20.2°F-6.6°C 15.3°F-9.3°C 81% Calm Calm 2.0 mph3.2 kmh 30.22 in1023.4 mb 0.00 in0.0 mm 0.00 in0.0 mm 0.00 in0.0 mm
05:40 AM 20.2°F-6.6°C 15.3°F-9.3°C 81% 2.0 mph NNW3.2 kmh NNW 3.0 mph4.8 kmh 30.21 in1023.0 mb 0.00 in0.0 mm 0.00 in0.0 mm 0.00 in0.0 mm
05:30 AM 20.4°F-6.4°C 15.5°F-9.2°C 81% Calm Calm 3.0 mph4.8 kmh 30.21 in1023.0 mb 0.00 in0.0 mm 0.00 in0.0 mm 0.00 in0.0 mm
05:20 AM 20.5°F-6.4°C 15.3°F-9.3°C 80% 2.0 mph NNW3.2 kmh NNW 4.0 mph6.4 kmh 30.20 in1022.7 mb 0.00 in0.0 mm 0.00 in0.0 mm 0.00 in0.0 mm
05:10 AM 20.7°F-6.3°C 15.5°F-9.2°C 80% 1.0 mph NNW1.6 kmh NNW 3.0 mph4.8 kmh 30.20 in1022.7 mb 0.00 in0.0 mm 0.00 in0.0 mm 0.00 in0.0 mm
05:00 AM 20.8°F-6.2°C 15.3°F-9.3°C 79% 3.0 mph NNW4.8 kmh NNW 6.0 mph9.7 kmh 30.20 in1022.7 mb 0.00 in0.0 mm 0.00 in0.0 mm 0.00 in0.0 mm
04:50 AM 21.0°F-6.1°C 15.5°F-9.2°C 79% 3.0 mph NW4.8 kmh NW 3.0 mph4.8 kmh 30.20 in1022.7 mb 0.00 in0.0 mm 0.00 in0.0 mm 0.00 in0.0 mm
04:40 AM 21.2°F-6.0°C 15.7°F-9.1°C 79% 2.0 mph NW3.2 kmh NW 6.0 mph9.7 kmh 30.19 in1022.4 mb 0.00 in0.0 mm 0.00 in0.0 mm 0.00 in0.0 mm
04:30 AM 21.3°F-5.9°C 15.5°F-9.2°C 78% 3.0 mph NNW4.8 kmh NNW 7.0 mph11.3 kmh 30.19 in1022.4 mb 0.00 in0.0 mm 0.00 in0.0 mm 0.00 in0.0 mm
04:20 AM 21.4°F-5.9°C 15.6°F-9.1°C 78% 4.0 mph NW6.4 kmh NW 5.0 mph8.0 kmh 30.19 in1022.4 mb 0.00 in0.0 mm 0.00 in0.0 mm 0.00 in0.0 mm
04:10 AM 21.5°F-5.8°C 15.4°F-9.2°C 77% 4.0 mph NW6.4 kmh NW 7.0 mph11.3 kmh 30.19 in1022.4 mb 0.00 in0.0 mm 0.00 in0.0 mm 0.00 in0.0 mm
04:00 AM 21.7°F-5.7°C 15.6°F-9.1°C 77% 3.0 mph NW4.8 kmh NW 5.0 mph8.0 kmh 30.19 in1022.4 mb 0.00 in0.0 mm 0.00 in0.0 mm 0.00 in0.0 mm
03:50 AM 21.8°F-5.7°C 15.7°F-9.1°C 77% 1.0 mph NW1.6 kmh NW 5.0 mph8.0 kmh 30.19 in1022.4 mb 0.00 in0.0 mm 0.00 in0.0 mm 0.00 in0.0 mm
03:40 AM 21.9°F-5.6°C 15.5°F-9.2°C 76% 2.0 mph NW3.2 kmh NW 5.0 mph8.0 kmh 30.19 in1022.4 mb 0.00 in0.0 mm 0.00 in0.0 mm 0.00 in0.0 mm
03:30 AM 22.1°F-5.5°C 15.4°F-9.2°C 75% Calm Calm 7.0 mph11.3 kmh 30.20 in1022.7 mb 0.00 in0.0 mm 0.00 in0.0 mm 0.00 in0.0 mm
03:20 AM 22.2°F-5.4°C 15.5°F-9.2°C 75% 4.0 mph NW6.4 kmh NW 5.0 mph8.0 kmh 30.19 in1022.4 mb 0.00 in0.0 mm 0.00 in0.0 mm 0.00 in0.0 mm
03:10 AM 22.4°F-5.3°C 15.4°F-9.2°C 74% 3.0 mph NW4.8 kmh NW 6.0 mph9.7 kmh 30.19 in1022.4 mb 0.00 in0.0 mm 0.00 in0.0 mm 0.00 in0.0 mm
03:00 AM 22.5°F-5.3°C 15.5°F-9.2°C 74% 1.0 mph NW1.6 kmh NW 7.0 mph11.3 kmh 30.19 in1022.4 mb 0.00 in0.0 mm 0.00 in0.0 mm 0.00 in0.0 mm
02:50 AM 22.7°F-5.2°C 15.4°F-9.2°C 73% 4.0 mph NNW6.4 kmh NNW 6.0 mph9.7 kmh 30.19 in1022.4 mb 0.00 in0.0 mm 0.00 in0.0 mm 0.00 in0.0 mm
02:40 AM 22.9°F-5.1°C 15.6°F-9.1°C 73% 4.0 mph NW6.4 kmh NW 7.0 mph11.3 kmh 30.19 in1022.4 mb 0.00 in0.0 mm 0.00 in0.0 mm 0.00 in0.0 mm
02:30 AM 23.1°F-4.9°C 15.4°F-9.2°C 72% 1.0 mph NW1.6 kmh NW 10.0 mph16.1 kmh 30.19 in1022.4 mb 0.00 in0.0 mm 0.00 in0.0 mm 0.00 in0.0 mm
02:20 AM 23.3°F-4.8°C 15.6°F-9.1°C 72% 6.0 mph NW9.7 kmh NW 9.0 mph14.5 kmh 30.19 in1022.4 mb 0.00 in0.0 mm 0.00 in0.0 mm 0.00 in0.0 mm
02:10 AM 23.5°F-4.7°C 15.5°F-9.2°C 71% 10.0 mph NW16.1 kmh NW 14.0 mph22.5 kmh 30.19 in1022.4 mb 0.00 in0.0 mm 0.00 in0.0 mm 0.00 in0.0 mm
02:00 AM 23.7°F-4.6°C 15.7°F-9.1°C 71% 5.0 mph NW8.0 kmh NW 12.0 mph19.3 kmh 30.19 in1022.4 mb 0.00 in0.0 mm 0.00 in0.0 mm 0.00 in0.0 mm
01:50 AM 23.9°F-4.5°C 15.6°F-9.1°C 70% 4.0 mph NW6.4 kmh NW 12.0 mph19.3 kmh 30.19 in1022.4 mb 0.00 in0.0 mm 0.00 in0.0 mm 0.00 in0.0 mm
01:40 AM 23.9°F-4.5°C 15.6°F-9.1°C 70% 7.0 mph NW11.3 kmh NW 9.0 mph14.5 kmh 30.18 in1022.0 mb 0.00 in0.0 mm 0.00 in0.0 mm 0.00 in0.0 mm
01:30 AM 24.2°F-4.3°C 15.5°F-9.2°C 69% 3.0 mph NW4.8 kmh NW 10.0 mph16.1 kmh 30.18 in1022.0 mb 0.00 in0.0 mm 0.00 in0.0 mm 0.00 in0.0 mm
01:20 AM 24.5°F-4.2°C 15.5°F-9.2°C 68% 4.0 mph NW6.4 kmh NW 7.0 mph11.3 kmh 30.18 in1022.0 mb 0.00 in0.0 mm 0.00 in0.0 mm 0.00 in0.0 mm
01:10 AM 24.8°F-4.0°C 15.4°F-9.2°C 67% 2.0 mph NW3.2 kmh NW 9.0 mph14.5 kmh 30.18 in1022.0 mb 0.00 in0.0 mm 0.00 in0.0 mm 0.00 in0.0 mm
01:00 AM 25.1°F-3.8°C 15.0°F-9.4°C 65% 4.0 mph NW6.4 kmh NW 11.0 mph17.7 kmh 30.18 in1022.0 mb 0.00 in0.0 mm 0.00 in0.0 mm 0.00 in0.0 mm
12:50 AM 25.5°F-3.6°C 15.4°F-9.2°C 65% 9.0 mph NNW14.5 kmh NNW 13.0 mph20.9 kmh 30.18 in1022.0 mb 0.00 in0.0 mm 0.00 in0.0 mm 0.00 in0.0 mm
12:40 AM 26.1°F-3.3°C 15.6°F-9.1°C 64% 4.0 mph NW6.4 kmh NW 11.0 mph17.7 kmh 30.18 in1022.0 mb 0.00 in0.0 mm 0.00 in0.0 mm 0.00 in0.0 mm
12:30 AM 26.4°F-3.1°C 15.9°F-8.9°C 64% 9.0 mph NW14.5 kmh NW 9.0 mph14.5 kmh 30.18 in1022.0 mb 0.00 in0.0 mm 0.00 in0.0 mm 0.00 in0.0 mm
12:20 AM 26.8°F-2.9°C 16.3°F-8.7°C 64% 4.0 mph NW6.4 kmh NW 7.0 mph11.3 kmh 30.18 in1022.0 mb 0.00 in0.0 mm 0.00 in0.0 mm 0.00 in0.0 mm
12:10 AM 27.1°F-2.7°C 15.5°F-9.2°C 61% 1.0 mph NW1.6 kmh NW 5.0 mph8.0 kmh 30.18 in1022.0 mb 0.00 in0.0 mm 0.00 in0.0 mm 0.00 in0.0 mm
12:00 AM 27.4°F-2.6°C 15.4°F-9.2°C 60% 7.0 mph NW11.3 kmh NW 10.0 mph16.1 kmh 30.17 in1021.7 mb 0.00 in0.0 mm 0.00 in0.0 mm 0.00 in0.0 mm